sensor_id;sensor_type;location;lat;lon;timestamp;P1;durP1;ratioP1;P2;durP2;ratioP2
2023;SDS011;1016;48.770;9.154;2023-04-01T00:00:55;16.07;;;0.70;;
2023;SDS011;1016;48.770;9.154;2023-04-01T00:03:22;16.10;;;0.80;;
2023;SDS011;1016;48.770;9.154;2023-04-01T00:05:48;16.53;;;0.90;;
2023;SDS011;1016;48.770;9.154;2023-04-01T00:08:15;16.90;;;1.00;;
2023;SDS011;1016;48.770;9.154;2023-04-01T00:10:41;18.07;;;1.20;;
2023;SDS011;1016;48.770;9.154;2023-04-01T00:13:06;16.37;;;0.87;;
2023;SDS011;1016;48.770;9.154;2023-04-01T00:15:32;16.63;;;1.00;;
2023;SDS011;1016;48.770;9.154;2023-04-01T00:17:58;17.37;;;1.13;;
2023;SDS011;1016;48.770;9.154;2023-04-01T00:20:24;18.87;;;0.90;;
2023;SDS011;1016;48.770;9.154;2023-04-01T00:22:50;18.07;;;1.17;;
2023;SDS011;1016;48.770;9.154;2023-04-01T00:25:16;16.80;;;1.07;;
2023;SDS011;1016;48.770;9.154;2023-04-01T00:27:42;19.80;;;1.00;;
2023;SDS011;1016;48.770;9.154;2023-04-01T00:30:08;20.00;;;1.20;;
2023;SDS011;1016;48.770;9.154;2023-04-01T00:32:34;19.27;;;1.20;;
2023;SDS011;1016;48.770;9.154;2023-04-01T00:35:00;16.73;;;1.13;;
2023;SDS011;1016;48.770;9.154;2023-04-01T00:37:26;18.13;;;0.90;;
2023;SDS011;1016;48.770;9.154;2023-04-01T00:39:53;16.70;;;0.90;;
2023;SDS011;1016;48.770;9.154;2023-04-01T00:42:18;15.80;;;0.80;;
2023;SDS011;1016;48.770;9.154;2023-04-01T00:44:51;16.37;;;0.87;;
2023;SDS011;1016;48.770;9.154;2023-04-01T00:47:17;17.20;;;1.20;;
2023;SDS011;1016;48.770;9.154;2023-04-01T00:49:45;17.70;;;1.03;;
2023;SDS011;1016;48.770;9.154;2023-04-01T00:52:14;17.60;;;1.13;;
2023;SDS011;1016;48.770;9.154;2023-04-01T00:54:44;17.23;;;1.13;;
2023;SDS011;1016;48.770;9.154;2023-04-01T00:57:17;16.90;;;1.17;;
2023;SDS011;1016;48.770;9.154;2023-04-01T00:59:49;17.17;;;1.33;;
2023;SDS011;1016;48.770;9.154;2023-04-01T01:02:19;18.40;;;1.10;;
2023;SDS011;1016;48.770;9.154;2023-04-01T01:04:45;16.47;;;1.00;;
2023;SDS011;1016;48.770;9.154;2023-04-01T01:27:08;16.57;;;1.07;;
2023;SDS011;1016;48.770;9.154;2023-04-01T01:29:45;18.30;;;1.27;;
2023;SDS011;1016;48.770;9.154;2023-04-01T01:32:25;16.60;;;1.47;;
2023;SDS011;1016;48.770;9.154;2023-04-01T01:38:16;17.83;;;1.10;;
2023;SDS011;1016;48.770;9.154;2023-04-01T01:40:45;16.90;;;0.90;;
2023;SDS011;1016;48.770;9.154;2023-04-01T01:43:17;16.77;;;1.00;;
2023;SDS011;1016;48.770;9.154;2023-04-01T01:45:48;16.43;;;1.20;;
2023;SDS011;1016;48.770;9.154;2023-04-01T01:48:18;16.73;;;1.00;;
2023;SDS011;1016;48.770;9.154;2023-04-01T01:50:44;17.80;;;1.00;;
2023;SDS011;1016;48.770;9.154;2023-04-01T01:53:11;16.83;;;1.10;;
2023;SDS011;1016;48.770;9.154;2023-04-01T01:55:39;16.67;;;0.90;;
2023;SDS011;1016;48.770;9.154;2023-04-01T01:58:26;16.47;;;0.90;;
2023;SDS011;1016;48.770;9.154;2023-04-01T02:00:56;21.60;;;1.20;;
2023;SDS011;1016;48.770;9.154;2023-04-01T02:03:28;17.10;;;0.90;;
2023;SDS011;1016;48.770;9.154;2023-04-01T02:05:59;18.27;;;1.20;;
2023;SDS011;1016;48.770;9.154;2023-04-01T02:08:34;17.63;;;0.90;;
2023;SDS011;1016;48.770;9.154;2023-04-01T02:11:04;16.90;;;0.90;;
2023;SDS011;1016;48.770;9.154;2023-04-01T02:16:19;16.70;;;0.90;;
2023;SDS011;1016;48.770;9.154;2023-04-01T02:18:49;18.60;;;0.97;;
2023;SDS011;1016;48.770;9.154;2023-04-01T02:21:18;15.97;;;0.80;;
2023;SDS011;1016;48.770;9.154;2023-04-01T02:23:47;16.77;;;1.07;;
2023;SDS011;1016;48.770;9.154;2023-04-01T02:26:12;16.70;;;0.90;;
2023;SDS011;1016;48.770;9.154;2023-04-01T02:28:39;16.70;;;0.90;;
2023;SDS011;1016;48.770;9.154;2023-04-01T02:31:06;16.50;;;0.87;;
2023;SDS011;1016;48.770;9.154;2023-04-01T02:33:34;17.33;;;0.93;;
2023;SDS011;1016;48.770;9.154;2023-04-01T02:36:01;16.57;;;0.90;;
2023;SDS011;1016;48.770;9.154;2023-04-01T02:38:27;16.43;;;0.90;;
2023;SDS011;1016;48.770;9.154;2023-04-01T02:40:57;16.10;;;0.83;;
2023;SDS011;1016;48.770;9.154;2023-04-01T02:43:24;16.30;;;0.80;;
2023;SDS011;1016;48.770;9.154;2023-04-01T02:45:49;15.73;;;0.73;;
2023;SDS011;1016;48.770;9.154;2023-04-01T02:48:15;16.13;;;0.80;;
2023;SDS011;1016;48.770;9.154;2023-04-01T02:50:40;15.50;;;0.67;;
2023;SDS011;1016;48.770;9.154;2023-04-01T02:53:06;16.50;;;0.67;;
2023;SDS011;1016;48.770;9.154;2023-04-01T02:55:32;15.43;;;0.50;;
2023;SDS011;1016;48.770;9.154;2023-04-01T02:57:58;16.07;;;0.90;;
2023;SDS011;1016;48.770;9.154;2023-04-01T03:00:24;16.47;;;0.87;;
2023;SDS011;1016;48.770;9.154;2023-04-01T03:02:50;16.50;;;0.87;;
2023;SDS011;1016;48.770;9.154;2023-04-01T03:05:16;16.07;;;0.70;;
2023;SDS011;1016;48.770;9.154;2023-04-01T03:07:42;15.80;;;0.60;;
2023;SDS011;1016;48.770;9.154;2023-04-01T03:10:07;15.90;;;0.73;;
2023;SDS011;1016;48.770;9.154;2023-04-01T03:12:33;16.60;;;0.70;;
2023;SDS011;1016;48.770;9.154;2023-04-01T03:14:59;16.30;;;0.73;;
2023;SDS011;1016;48.770;9.154;2023-04-01T03:17:24;15.70;;;0.67;;
2023;SDS011;1016;48.770;9.154;2023-04-01T03:19:50;16.27;;;0.60;;
2023;SDS011;1016;48.770;9.154;2023-04-01T03:22:16;17.10;;;0.80;;
2023;SDS011;1016;48.770;9.154;2023-04-01T03:24:41;15.60;;;0.60;;
2023;SDS011;1016;48.770;9.154;2023-04-01T03:27:07;15.87;;;0.60;;
2023;SDS011;1016;48.770;9.154;2023-04-01T03:29:32;16.07;;;0.70;;
2023;SDS011;1016;48.770;9.154;2023-04-01T03:31:58;18.90;;;1.10;;
2023;SDS011;1016;48.770;9.154;2023-04-01T03:34:24;15.90;;;0.70;;
2023;SDS011;1016;48.770;9.154;2023-04-01T03:36:51;15.27;;;0.60;;
2023;SDS011;1016;48.770;9.154;2023-04-01T03:39:16;15.83;;;0.70;;
2023;SDS011;1016;48.770;9.154;2023-04-01T03:41:43;15.87;;;0.63;;
2023;SDS011;1016;48.770;9.154;2023-04-01T03:44:10;15.80;;;0.57;;
2023;SDS011;1016;48.770;9.154;2023-04-01T03:46:36;15.77;;;0.70;;
2023;SDS011;1016;48.770;9.154;2023-04-01T03:49:02;16.60;;;0.77;;
2023;SDS011;1016;48.770;9.154;2023-04-01T03:51:27;16.23;;;0.80;;
2023;SDS011;1016;48.770;9.154;2023-04-01T03:53:53;16.03;;;0.70;;
2023;SDS011;1016;48.770;9.154;2023-04-01T03:56:19;16.37;;;0.67;;
2023;SDS011;1016;48.770;9.154;2023-04-01T03:58:44;16.30;;;0.70;;
2023;SDS011;1016;48.770;9.154;2023-04-01T04:01:14;16.20;;;0.67;;
2023;SDS011;1016;48.770;9.154;2023-04-01T04:03:40;16.50;;;0.70;;
2023;SDS011;1016;48.770;9.154;2023-04-01T04:06:09;18.47;;;0.90;;
2023;SDS011;1016;48.770;9.154;2023-04-01T04:08:36;16.20;;;0.60;;
2023;SDS011;1016;48.770;9.154;2023-04-01T04:11:01;16.33;;;0.70;;
2023;SDS011;1016;48.770;9.154;2023-04-01T04:13:27;16.60;;;0.70;;
2023;SDS011;1016;48.770;9.154;2023-04-01T04:15:53;16.77;;;0.77;;
2023;SDS011;1016;48.770;9.154;2023-04-01T04:18:18;17.50;;;0.80;;
2023;SDS011;1016;48.770;9.154;2023-04-01T04:20:44;18.43;;;0.93;;
2023;SDS011;1016;48.770;9.154;2023-04-01T04:23:12;16.33;;;0.70;;
2023;SDS011;1016;48.770;9.154;2023-04-01T04:25:38;15.90;;;0.60;;
2023;SDS011;1016;48.770;9.154;2023-04-01T04:28:04;15.83;;;0.67;;
2023;SDS011;1016;48.770;9.154;2023-04-01T04:30:29;16.30;;;0.70;;
2023;SDS011;1016;48.770;9.154;2023-04-01T04:32:55;15.80;;;0.80;;
2023;SDS011;1016;48.770;9.154;2023-04-01T04:35:20;16.70;;;0.80;;
2023;SDS011;1016;48.770;9.154;2023-04-01T04:37:46;16.40;;;0.60;;
2023;SDS011;1016;48.770;9.154;2023-04-01T04:40:11;16.20;;;0.60;;
2023;SDS011;1016;48.770;9.154;2023-04-01T04:42:37;16.10;;;0.70;;
2023;SDS011;1016;48.770;9.154;2023-04-01T04:45:02;16.27;;;0.70;;
2023;SDS011;1016;48.770;9.154;2023-04-01T04:47:28;16.00;;;0.70;;
2023;SDS011;1016;48.770;9.154;2023-04-01T04:49:53;17.00;;;0.70;;
2023;SDS011;1016;48.770;9.154;2023-04-01T04:52:19;16.07;;;0.60;;
2023;SDS011;1016;48.770;9.154;2023-04-01T04:54:44;15.70;;;0.60;;
2023;SDS011;1016;48.770;9.154;2023-04-01T04:57:10;16.27;;;0.70;;
2023;SDS011;1016;48.770;9.154;2023-04-01T04:59:36;16.10;;;0.80;;
2023;SDS011;1016;48.770;9.154;2023-04-01T05:02:02;16.10;;;0.60;;
2023;SDS011;1016;48.770;9.154;2023-04-01T05:04:27;17.00;;;0.73;;
2023;SDS011;1016;48.770;9.154;2023-04-01T05:06:53;16.17;;;0.70;;
2023;SDS011;1016;48.770;9.154;2023-04-01T05:09:18;16.93;;;0.80;;
2023;SDS011;1016;48.770;9.154;2023-04-01T05:11:44;16.20;;;0.90;;
2023;SDS011;1016;48.770;9.154;2023-04-01T05:14:14;17.57;;;1.20;;
2023;SDS011;1016;48.770;9.154;2023-04-01T05:16:40;17.80;;;0.93;;
2023;SDS011;1016;48.770;9.154;2023-04-01T05:19:06;18.10;;;1.00;;
2023;SDS011;1016;48.770;9.154;2023-04-01T05:21:31;16.23;;;0.80;;
2023;SDS011;1016;48.770;9.154;2023-04-01T05:23:57;16.37;;;0.87;;
2023;SDS011;1016;48.770;9.154;2023-04-01T05:26:22;18.00;;;1.17;;
2023;SDS011;1016;48.770;9.154;2023-04-01T05:28:48;16.93;;;1.13;;
2023;SDS011;1016;48.770;9.154;2023-04-01T05:31:13;18.10;;;1.00;;
2023;SDS011;1016;48.770;9.154;2023-04-01T05:33:39;16.20;;;0.80;;
2023;SDS011;1016;48.770;9.154;2023-04-01T05:36:05;16.50;;;1.00;;
2023;SDS011;1016;48.770;9.154;2023-04-01T05:38:31;16.70;;;1.00;;
2023;SDS011;1016;48.770;9.154;2023-04-01T05:41:00;17.63;;;1.17;;
2023;SDS011;1016;48.770;9.154;2023-04-01T05:43:26;18.30;;;1.00;;
2023;SDS011;1016;48.770;9.154;2023-04-01T05:45:52;17.53;;;1.10;;
2023;SDS011;1016;48.770;9.154;2023-04-01T05:48:18;22.63;;;1.10;;
2023;SDS011;1016;48.770;9.154;2023-04-01T05:50:43;17.00;;;0.83;;
2023;SDS011;1016;48.770;9.154;2023-04-01T05:53:09;16.47;;;0.90;;
2023;SDS011;1016;48.770;9.154;2023-04-01T05:55:35;17.73;;;1.27;;
2023;SDS011;1016;48.770;9.154;2023-04-01T05:58:01;16.30;;;1.03;;
2023;SDS011;1016;48.770;9.154;2023-04-01T06:00:26;16.80;;;0.90;;
2023;SDS011;1016;48.770;9.154;2023-04-01T06:02:52;16.07;;;0.80;;
2023;SDS011;1016;48.770;9.154;2023-04-01T06:05:19;16.70;;;1.00;;
2023;SDS011;1016;48.770;9.154;2023-04-01T06:07:46;18.03;;;0.87;;
2023;SDS011;1016;48.770;9.154;2023-04-01T06:10:19;17.00;;;0.93;;
2023;SDS011;1016;48.770;9.154;2023-04-01T06:15:28;16.97;;;0.90;;
2023;SDS011;1016;48.770;9.154;2023-04-01T06:51:17;16.70;;;0.90;;
2023;SDS011;1016;48.770;9.154;2023-04-01T06:53:54;16.80;;;1.13;;
2023;SDS011;1016;48.770;9.154;2023-04-01T06:56:23;17.60;;;0.67;;
2023;SDS011;1016;48.770;9.154;2023-04-01T06:59:02;15.87;;;0.80;;
2023;SDS011;1016;48.770;9.154;2023-04-01T07:01:52;17.50;;;0.80;;
2023;SDS011;1016;48.770;9.154;2023-04-01T07:04:35;16.80;;;0.80;;
2023;SDS011;1016;48.770;9.154;2023-04-01T07:07:05;17.40;;;1.03;;
2023;SDS011;1016;48.770;9.154;2023-04-01T07:09:41;17.30;;;1.30;;
2023;SDS011;1016;48.770;9.154;2023-04-01T07:12:37;16.87;;;1.10;;
2023;SDS011;1016;48.770;9.154;2023-04-01T07:15:15;16.50;;;0.77;;
2023;SDS011;1016;48.770;9.154;2023-04-01T07:17:47;17.73;;;0.83;;
2023;SDS011;1016;48.770;9.154;2023-04-01T07:22:56;18.00;;;1.23;;
2023;SDS011;1016;48.770;9.154;2023-04-01T07:25:29;16.93;;;0.70;;
2023;SDS011;1016;48.770;9.154;2023-04-01T07:28:06;16.90;;;0.90;;
2023;SDS011;1016;48.770;9.154;2023-04-01T07:30:45;16.43;;;0.80;;
2023;SDS011;1016;48.770;9.154;2023-04-01T07:36:42;17.50;;;1.07;;
2023;SDS011;1016;48.770;9.154;2023-04-01T07:39:52;17.63;;;1.10;;
2023;SDS011;1016;48.770;9.154;2023-04-01T07:43:11;16.77;;;1.00;;
2023;SDS011;1016;48.770;9.154;2023-04-01T07:45:19;17.00;;;1.00;;
2023;SDS011;1016;48.770;9.154;2023-04-01T07:50:31;17.17;;;1.00;;
2023;SDS011;1016;48.770;9.154;2023-04-01T07:53:08;18.63;;;0.97;;
2023;SDS011;1016;48.770;9.154;2023-04-01T07:55:51;16.20;;;0.87;;
2023;SDS011;1016;48.770;9.154;2023-04-01T07:58:37;16.43;;;0.90;;
2023;SDS011;1016;48.770;9.154;2023-04-01T08:08:11;17.20;;;0.70;;
2023;SDS011;1016;48.770;9.154;2023-04-01T08:13:17;16.30;;;0.87;;
2023;SDS011;1016;48.770;9.154;2023-04-01T08:16:20;17.07;;;1.13;;
2023;SDS011;1016;48.770;9.154;2023-04-01T08:22:02;16.60;;;0.90;;
2023;SDS011;1016;48.770;9.154;2023-04-01T08:24:52;17.27;;;0.90;;
2023;SDS011;1016;48.770;9.154;2023-04-01T08:29:53;16.90;;;1.00;;
2023;SDS011;1016;48.770;9.154;2023-04-01T08:32:44;16.60;;;0.80;;
2023;SDS011;1016;48.770;9.154;2023-04-01T08:37:56;16.07;;;0.63;;
2023;SDS011;1016;48.770;9.154;2023-04-01T08:40:41;16.87;;;0.70;;
2023;SDS011;1016;48.770;9.154;2023-04-01T08:46:23;16.40;;;0.73;;
2023;SDS011;1016;48.770;9.154;2023-04-01T08:49:00;16.30;;;0.70;;
2023;SDS011;1016;48.770;9.154;2023-04-01T08:51:43;16.10;;;0.60;;
2023;SDS011;1016;48.770;9.154;2023-04-01T08:59:43;17.70;;;1.03;;
2023;SDS011;1016;48.770;9.154;2023-04-01T09:05:26;16.10;;;0.80;;
2023;SDS011;1016;48.770;9.154;2023-04-01T09:08:04;16.53;;;0.90;;
2023;SDS011;1016;48.770;9.154;2023-04-01T09:19:14;16.57;;;0.93;;
2023;SDS011;1016;48.770;9.154;2023-04-01T09:24:33;17.57;;;1.43;;
2023;SDS011;1016;48.770;9.154;2023-04-01T09:27:04;16.43;;;1.10;;
2023;SDS011;1016;48.770;9.154;2023-04-01T09:35:24;16.10;;;0.83;;
2023;SDS011;1016;48.770;9.154;2023-04-01T09:44:03;15.93;;;0.80;;
2023;SDS011;1016;48.770;9.154;2023-04-01T09:49:36;16.80;;;0.70;;
2023;SDS011;1016;48.770;9.154;2023-04-01T09:52:42;15.97;;;0.70;;
2023;SDS011;1016;48.770;9.154;2023-04-01T10:12:49;15.53;;;0.60;;
2023;SDS011;1016;48.770;9.154;2023-04-01T10:15:40;15.87;;;0.60;;
2023;SDS011;1016;48.770;9.154;2023-04-01T10:29:14;16.60;;;0.87;;
2023;SDS011;1016;48.770;9.154;2023-04-01T10:32:16;16.20;;;0.70;;
2023;SDS011;1016;48.770;9.154;2023-04-01T10:34:56;15.90;;;0.60;;
2023;SDS011;1016;48.770;9.154;2023-04-01T10:40:35;15.97;;;0.60;;
2023;SDS011;1016;48.770;9.154;2023-04-01T10:43:40;15.77;;;0.70;;
2023;SDS011;1016;48.770;9.154;2023-04-01T10:49:10;16.00;;;0.70;;
2023;SDS011;1016;48.770;9.154;2023-04-01T11:00:36;16.20;;;0.67;;
2023;SDS011;1016;48.770;9.154;2023-04-01T11:05:53;15.87;;;0.60;;
2023;SDS011;1016;48.770;9.154;2023-04-01T11:33:53;16.00;;;0.60;;
2023;SDS011;1016;48.770;9.154;2023-04-01T11:37:03;15.87;;;0.60;;
2023;SDS011;1016;48.770;9.154;2023-04-01T11:40:02;16.60;;;0.57;;
2023;SDS011;1016;48.770;9.154;2023-04-01T11:42:53;16.33;;;0.70;;
2023;SDS011;1016;48.770;9.154;2023-04-01T11:53:41;16.47;;;0.50;;
2023;SDS011;1016;48.770;9.154;2023-04-01T12:02:13;15.83;;;0.57;;
2023;SDS011;1016;48.770;9.154;2023-04-01T12:10:18;15.87;;;0.50;;
2023;SDS011;1016;48.770;9.154;2023-04-01T12:13:10;16.03;;;0.50;;
2023;SDS011;1016;48.770;9.154;2023-04-01T12:18:42;15.83;;;0.60;;
2023;SDS011;1016;48.770;9.154;2023-04-01T12:23:56;17.00;;;0.60;;
2023;SDS011;1016;48.770;9.154;2023-04-01T12:26:35;15.70;;;0.60;;
2023;SDS011;1016;48.770;9.154;2023-04-01T12:35:07;16.23;;;0.53;;
2023;SDS011;1016;48.770;9.154;2023-04-01T12:37:47;16.03;;;0.57;;
2023;SDS011;1016;48.770;9.154;2023-04-01T12:43:25;16.90;;;0.67;;
2023;SDS011;1016;48.770;9.154;2023-04-01T12:52:00;16.20;;;0.70;;
2023;SDS011;1016;48.770;9.154;2023-04-01T12:54:58;16.03;;;0.60;;
2023;SDS011;1016;48.770;9.154;2023-04-01T13:13:48;16.03;;;0.47;;
2023;SDS011;1016;48.770;9.154;2023-04-01T13:16:43;16.53;;;0.50;;
2023;SDS011;1016;48.770;9.154;2023-04-01T13:19:20;16.17;;;0.60;;
2023;SDS011;1016;48.770;9.154;2023-04-01T13:22:03;16.33;;;0.50;;
2023;SDS011;1016;48.770;9.154;2023-04-01T13:27:53;16.03;;;0.53;;
2023;SDS011;1016;48.770;9.154;2023-04-01T13:30:02;16.17;;;0.60;;
2023;SDS011;1016;48.770;9.154;2023-04-01T13:35:29;16.20;;;0.60;;
2023;SDS011;1016;48.770;9.154;2023-04-01T13:41:09;16.17;;;0.50;;
2023;SDS011;1016;48.770;9.154;2023-04-01T13:43:47;16.07;;;0.50;;
2023;SDS011;1016;48.770;9.154;2023-04-01T13:49:04;16.07;;;0.60;;
2023;SDS011;1016;48.770;9.154;2023-04-01T14:00:24;16.47;;;0.50;;
2023;SDS011;1016;48.770;9.154;2023-04-01T14:11:56;16.17;;;0.50;;
2023;SDS011;1016;48.770;9.154;2023-04-01T14:14:58;16.07;;;0.60;;
2023;SDS011;1016;48.770;9.154;2023-04-01T14:20:27;16.33;;;0.50;;
2023;SDS011;1016;48.770;9.154;2023-04-01T14:23:04;16.43;;;0.53;;
2023;SDS011;1016;48.770;9.154;2023-04-01T14:28:36;16.53;;;0.60;;
2023;SDS011;1016;48.770;9.154;2023-04-01T14:33:47;17.00;;;0.70;;
2023;SDS011;1016;48.770;9.154;2023-04-01T14:36:41;16.10;;;0.40;;
2023;SDS011;1016;48.770;9.154;2023-04-01T14:44:49;16.50;;;0.60;;
2023;SDS011;1016;48.770;9.154;2023-04-01T14:50:13;16.23;;;0.50;;
2023;SDS011;1016;48.770;9.154;2023-04-01T14:53:10;16.37;;;0.60;;
2023;SDS011;1016;48.770;9.154;2023-04-01T14:58:10;16.30;;;0.57;;
2023;SDS011;1016;48.770;9.154;2023-04-01T15:08:59;16.27;;;0.43;;
2023;SDS011;1016;48.770;9.154;2023-04-01T15:14:50;16.93;;;0.53;;
2023;SDS011;1016;48.770;9.154;2023-04-01T15:17:33;16.77;;;0.60;;
2023;SDS011;1016;48.770;9.154;2023-04-01T15:23:12;16.23;;;0.60;;
2023;SDS011;1016;48.770;9.154;2023-04-01T15:29:18;16.47;;;0.50;;
2023;SDS011;1016;48.770;9.154;2023-04-01T15:35:17;16.37;;;0.50;;
2023;SDS011;1016;48.770;9.154;2023-04-01T15:38:06;16.07;;;0.50;;
2023;SDS011;1016;48.770;9.154;2023-04-01T15:43:42;16.47;;;0.60;;
2023;SDS011;1016;48.770;9.154;2023-04-01T15:55:04;16.37;;;0.60;;
2023;SDS011;1016;48.770;9.154;2023-04-01T15:57:48;16.53;;;0.70;;
2023;SDS011;1016;48.770;9.154;2023-04-01T16:00:30;16.53;;;0.70;;
2023;SDS011;1016;48.770;9.154;2023-04-01T16:03:14;16.53;;;0.70;;
2023;SDS011;1016;48.770;9.154;2023-04-01T16:08:53;16.27;;;0.60;;
2023;SDS011;1016;48.770;9.154;2023-04-01T16:14:34;16.67;;;0.70;;
2023;SDS011;1016;48.770;9.154;2023-04-01T16:17:20;17.53;;;0.70;;
2023;SDS011;1016;48.770;9.154;2023-04-01T16:20:20;16.77;;;0.80;;
2023;SDS011;1016;48.770;9.154;2023-04-01T16:25:44;17.67;;;0.60;;
2023;SDS011;1016;48.770;9.154;2023-04-01T16:31:15;16.73;;;0.80;;
2023;SDS011;1016;48.770;9.154;2023-04-01T16:39:43;16.40;;;0.80;;
2023;SDS011;1016;48.770;9.154;2023-04-01T16:50:23;16.50;;;0.80;;
2023;SDS011;1016;48.770;9.154;2023-04-01T16:58:27;16.90;;;0.70;;
2023;SDS011;1016;48.770;9.154;2023-04-01T17:01:01;17.07;;;0.67;;
2023;SDS011;1016;48.770;9.154;2023-04-01T17:03:40;17.00;;;0.80;;
2023;SDS011;1016;48.770;9.154;2023-04-01T17:12:08;16.90;;;0.90;;
2023;SDS011;1016;48.770;9.154;2023-04-01T17:17:38;17.20;;;0.87;;
2023;SDS011;1016;48.770;9.154;2023-04-01T17:20:27;16.77;;;0.90;;
2023;SDS011;1016;48.770;9.154;2023-04-01T17:22:55;17.53;;;1.00;;
2023;SDS011;1016;48.770;9.154;2023-04-01T17:25:45;17.40;;;0.90;;
2023;SDS011;1016;48.770;9.154;2023-04-01T17:31:18;18.00;;;1.40;;
2023;SDS011;1016;48.770;9.154;2023-04-01T17:34:09;17.40;;;1.03;;
2023;SDS011;1016;48.770;9.154;2023-04-01T17:42:06;17.10;;;1.00;;
2023;SDS011;1016;48.770;9.154;2023-04-01T18:25:28;19.47;;;1.50;;
2023;SDS011;1016;48.770;9.154;2023-04-01T18:28:17;16.70;;;1.00;;
2023;SDS011;1016;48.770;9.154;2023-04-01T18:30:50;16.87;;;1.23;;
2023;SDS011;1016;48.770;9.154;2023-04-01T18:33:25;16.03;;;1.00;;
2023;SDS011;1016;48.770;9.154;2023-04-01T18:39:22;16.70;;;1.00;;
2023;SDS011;1016;48.770;9.154;2023-04-01T18:45:10;18.03;;;1.10;;
2023;SDS011;1016;48.770;9.154;2023-04-01T18:50:52;16.17;;;0.70;;
2023;SDS011;1016;48.770;9.154;2023-04-01T18:53:28;16.27;;;0.80;;
2023;SDS011;1016;48.770;9.154;2023-04-01T18:56:02;16.80;;;0.80;;
2023;SDS011;1016;48.770;9.154;2023-04-01T18:58:34;16.27;;;0.90;;
2023;SDS011;1016;48.770;9.154;2023-04-01T19:01:11;16.20;;;0.80;;
2023;SDS011;1016;48.770;9.154;2023-04-01T19:03:47;16.33;;;0.87;;
2023;SDS011;1016;48.770;9.154;2023-04-01T19:06:34;16.80;;;0.90;;
2023;SDS011;1016;48.770;9.154;2023-04-01T19:09:21;16.23;;;0.80;;
2023;SDS011;1016;48.770;9.154;2023-04-01T19:11:54;17.30;;;0.83;;
2023;SDS011;1016;48.770;9.154;2023-04-01T19:23:31;16.60;;;0.70;;
2023;SDS011;1016;48.770;9.154;2023-04-01T19:29:23;16.50;;;1.00;;
2023;SDS011;1016;48.770;9.154;2023-04-01T19:35:04;17.10;;;1.00;;
2023;SDS011;1016;48.770;9.154;2023-04-01T19:40:28;17.40;;;1.20;;
2023;SDS011;1016;48.770;9.154;2023-04-01T19:51:16;17.37;;;1.50;;
2023;SDS011;1016;48.770;9.154;2023-04-01T19:56:43;17.40;;;1.53;;
2023;SDS011;1016;48.770;9.154;2023-04-01T20:04:59;17.43;;;1.33;;
2023;SDS011;1016;48.770;9.154;2023-04-01T20:07:42;16.77;;;1.10;;
2023;SDS011;1016;48.770;9.154;2023-04-01T20:18:14;17.03;;;1.30;;
2023;SDS011;1016;48.770;9.154;2023-04-01T20:20:51;16.60;;;0.83;;
2023;SDS011;1016;48.770;9.154;2023-04-01T20:23:39;16.33;;;1.00;;
2023;SDS011;1016;48.770;9.154;2023-04-01T20:26:09;16.30;;;0.97;;
2023;SDS011;1016;48.770;9.154;2023-04-01T20:31:43;16.67;;;1.07;;
2023;SDS011;1016;48.770;9.154;2023-04-01T20:34:36;16.57;;;1.10;;
2023;SDS011;1016;48.770;9.154;2023-04-01T20:37:17;16.27;;;1.00;;
2023;SDS011;1016;48.770;9.154;2023-04-01T20:39:59;17.47;;;1.13;;
2023;SDS011;1016;48.770;9.154;2023-04-01T20:42:34;17.13;;;1.17;;
2023;SDS011;1016;48.770;9.154;2023-04-01T20:45:32;16.43;;;1.00;;
2023;SDS011;1016;48.770;9.154;2023-04-01T20:50:59;16.67;;;1.00;;
2023;SDS011;1016;48.770;9.154;2023-04-01T20:54:39;16.70;;;1.20;;
2023;SDS011;1016;48.770;9.154;2023-04-01T20:56:45;16.20;;;1.03;;
2023;SDS011;1016;48.770;9.154;2023-04-01T21:02:22;17.10;;;1.23;;
2023;SDS011;1016;48.770;9.154;2023-04-01T21:08:02;16.27;;;1.00;;
2023;SDS011;1016;48.770;9.154;2023-04-01T21:16:39;17.00;;;0.90;;
2023;SDS011;1016;48.770;9.154;2023-04-01T21:22:12;17.63;;;1.07;;
2023;SDS011;1016;48.770;9.154;2023-04-01T21:24:48;16.07;;;1.00;;
2023;SDS011;1016;48.770;9.154;2023-04-01T21:27:23;16.43;;;1.10;;
2023;SDS011;1016;48.770;9.154;2023-04-01T21:32:34;16.47;;;1.10;;
2023;SDS011;1016;48.770;9.154;2023-04-01T21:37:57;17.00;;;1.20;;
2023;SDS011;1016;48.770;9.154;2023-04-01T21:59:57;16.87;;;0.90;;
2023;SDS011;1016;48.770;9.154;2023-04-01T22:05:39;19.23;;;1.00;;
2023;SDS011;1016;48.770;9.154;2023-04-01T22:11:51;16.07;;;0.90;;
2023;SDS011;1016;48.770;9.154;2023-04-01T22:16:53;16.83;;;1.00;;
2023;SDS011;1016;48.770;9.154;2023-04-01T22:25:42;16.20;;;0.80;;
2023;SDS011;1016;48.770;9.154;2023-04-01T22:28:35;16.07;;;0.80;;
2023;SDS011;1016;48.770;9.154;2023-04-01T22:31:14;16.03;;;0.70;;
2023;SDS011;1016;48.770;9.154;2023-04-01T22:42:25;16.63;;;1.10;;
2023;SDS011;1016;48.770;9.154;2023-04-01T22:45:21;16.97;;;1.07;;
2023;SDS011;1016;48.770;9.154;2023-04-01T22:48:20;16.90;;;0.90;;
2023;SDS011;1016;48.770;9.154;2023-04-01T22:56:10;16.40;;;0.80;;
2023;SDS011;1016;48.770;9.154;2023-04-01T22:58:45;16.37;;;0.90;;
2023;SDS011;1016;48.770;9.154;2023-04-01T23:01:16;16.37;;;0.80;;
2023;SDS011;1016;48.770;9.154;2023-04-01T23:03:49;16.63;;;0.80;;
2023;SDS011;1016;48.770;9.154;2023-04-01T23:06:17;16.90;;;1.03;;
2023;SDS011;1016;48.770;9.154;2023-04-01T23:08:53;16.37;;;1.00;;
2023;SDS011;1016;48.770;9.154;2023-04-01T23:11:37;16.20;;;0.90;;
2023;SDS011;1016;48.770;9.154;2023-04-01T23:22:31;16.23;;;0.70;;
2023;SDS011;1016;48.770;9.154;2023-04-01T23:35:52;16.77;;;0.87;;
2023;SDS011;1016;48.770;9.154;2023-04-01T23:38:19;16.60;;;0.90;;
2023;SDS011;1016;48.770;9.154;2023-04-01T23:40:47;17.00;;;0.80;;
2023;SDS011;1016;48.770;9.154;2023-04-01T23:43:23;16.00;;;0.70;;
2023;SDS011;1016;48.770;9.154;2023-04-01T23:45:55;16.80;;;0.80;;
2023;SDS011;1016;48.770;9.154;2023-04-01T23:48:23;17.50;;;0.83;;
2023;SDS011;1016;48.770;9.154;2023-04-01T23:50:56;16.07;;;0.70;;
2023;SDS011;1016;48.770;9.154;2023-04-01T23:53:24;16.23;;;0.80;;
2023;SDS011;1016;48.770;9.154;2023-04-01T23:55:53;16.63;;;0.80;;
2023;SDS011;1016;48.770;9.154;2023-04-01T23:58:23;16.23;;;0.83;;
